This is the latest recevied weather packets stored in our database for station/object KF0DL. If no packets are shown the sender has not sent any weather packets the latest 10 day(s).
| Time | Temp. | Humidity | Pressure | Rain* | Wind** | Luminosity | Snow |
|---|---|---|---|---|---|---|---|
| 1788140602 | 63° F | 84% | 760.5 mmHg | 0.09 in | - | - | - |
| 1788140330 | 63° F | 84% | 760.5 mmHg | 0.21 in | - | - | - |
| 1788140018 | 63° F | 85% | 760.5 mmHg | 0.34 in | - | - | - |
| 1788139707 | 63° F | 85% | 760.5 mmHg | 0.47 in | - | - | - |
| 1788139414 | 63° F | 86% | 760.3 mmHg | 0.47 in | - | - | - |
| 1788139104 | 64° F | 86% | 760.3 mmHg | 0.47 in | - | - | - |
| 1788138831 | 64° F | 86% | 760.3 mmHg | 0.47 in | - | - | - |
| 1788138500 | 64° F | 86% | 760.8 mmHg | 0.46 in | - | - | - |
| 1788138205 | 65° F | 85% | 760.8 mmHg | 0.45 in | - | - | - |
| 1788137913 | 65° F | 84% | 760.8 mmHg | 0.45 in | - | - | - |
| 1788137601 | 66° F | 83% | 760.9 mmHg | 0.44 in | - | - | - |
| 1788137330 | 66° F | 82% | 760.9 mmHg | 0.43 in | - | - | - |
| 1788136999 | 67° F | 80% | 759.9 mmHg | 0.38 in | - | - | - |
| 1788136707 | 70° F | 76% | 759.9 mmHg | 0.27 in | - | - | - |
| 1788136417 | 73° F | 70% | 759.9 mmHg | 0.15 in | - | - | - |
| 1788136105 | 76° F | 62% | 759.9 mmHg | 0.01 in | - | - | - |
| 1788135813 | 77° F | 69% | 758.5 mmHg | 0 in | - | - | - |
| 1788135502 | 77° F | 69% | 758.5 mmHg | 0 in | - | - | - |
| 1788135230 | 78° F | 68% | 758.5 mmHg | 0 in | - | - | - |
| 1788134918 | 78° F | 67% | 757.3 mmHg | 0 in | - | - | - |
| 1788134606 | 78° F | 66% | 757.3 mmHg | 0 in | - | - | - |
| 1788134313 | 79° F | 66% | 757.3 mmHg | 0 in | - | - | - |
| 1788134003 | 79° F | 65% | 757.4 mmHg | 0 in | - | - | - |
| 1788133716 | 79° F | 65% | 757.4 mmHg | 0 in | - | - | - |
| 1788133423 | 79° F | 64% | 757.4 mmHg | 0 in | - | - | - |
* Rain latest hour (hover to see other rain measurements)
** Current wind speed in m/s (hover to see current wind gust speed)